Flight Track Log - Related Links

Times and Time Zones

All times are in EDT time to prevent confusion due to time zone crossing. See the ASQ4577 flight status page for this flight to view local times or setup timezone preferences in your user account.

Time Position Orientation Groundspeed Altitude Reporting Facility
EDT Latitude Longitude Course Direction KTS MPH feet Rate Location/Type
Sun 04:13:52 PM 42.0167 -87.9333 90° East 154 177 2,900  Level Chicago TRACON
Sun 04:14:58 PM 42.0667 -87.8833 37° Northeast 236 272 4,600 1,150 Climbing Chicago TRACON
Sun 04:15:52 PM 42.1167 -87.8333 37° Northeast 255 293 5,200 1,317 Climbing Chicago TRACON
Sun 04:16:20 PM 42.1347 -87.8064 48° Northeast 251 289 6,400 2,333 Climbing Chicago Center
Sun 04:17:00 PM 42.0661 -87.2626 78° East  Level FlightAware Approximate
Sun 04:17:22 PM 42.1778 -87.7283 53° Northeast 280 322 8,700  Level Chicago Center
Sun 04:18:00 PM 42.0861 -87.1334 77° East  Level FlightAware Approximate
Sun 04:18:24 PM 42.1656 -87.6192 99° East 296 341 10,500  Level Chicago Center
Sun 04:19:00 PM 42.1000 -87.0220 90° East  Level FlightAware Approximate
Sun 04:19:27 PM 42.1531 -87.4997 98° East 316 364 12,500  Level Chicago Center
Sun 04:20:29 PM 42.1419 -87.3733 97° East 336 387 13,600 1,210 Climbing Chicago Center
Sun 04:21:31 PM 42.1269 -87.2078 97° East 367 422 15,000 1,355 Climbing Chicago Center
Sun 04:22:33 PM 42.1122 -87.0656 98° East 382 440 16,400 1,355 Climbing Chicago Center
Sun 04:23:35 PM 42.1164 -86.9214 88° East 385 443 17,800 1,210 Climbing Chicago Center
Sun 04:24:37 PM 42.1217 -86.7769 87° East 387 445 18,900 1,258 Climbing Chicago Center
Sun 04:25:39 PM 42.1289 -86.6114 87° East 399 459 20,400 1,403 Climbing Chicago Center
Sun 04:26:41 PM 42.1339 -86.4614 87° East 401 461 21,800 1,210 Climbing Chicago Center
Sun 04:27:43 PM 42.1383 -86.3100 88° East 404 465 22,900 581 Climbing Chicago Center
Sun 04:28:45 PM 42.1431 -86.1500 88° East 421 484 23,000 48 Climbing Chicago Center
Sun 04:29:47 PM 42.1403 -85.9583 91° East 453 521 23,000  Level Chicago Center
Sun 04:30:49 PM 42.1350 -85.7858 92° East 464 534 23,000  Level Chicago Center
Sun 04:31:51 PM 42.1297 -85.6103 92° East 471 542 23,000  Level Chicago Center
Sun 04:32:53 PM 42.1244 -85.4331 92° East 475 547 23,000  Level Chicago Center
Sun 04:33:56 PM 42.1183 -85.2564 93° East 475 547 23,000  Level Chicago Center
Sun 04:34:58 PM 42.1133 -85.0375 92° East 485 558 23,000  Level Chicago Center
Sun 04:36:00 PM 42.1061 -84.8581 93° East 484 557 23,000  Level Chicago Center
Sun 04:37:02 PM 42.1000 -84.6783 93° East 484 557 23,000  Level Chicago Center
Sun 04:38:04 PM 42.0933 -84.4997 93° East 481 554 23,000  Level Chicago Center
Sun 04:39:06 PM 42.0864 -84.3203 93° East 482 555 23,000  Level Chicago Center
Sun 04:40:08 PM 42.0783 -84.1403 93° East 483 556 23,000  Level Chicago Center
Sun 04:41:10 PM 42.0692 -83.9400 93° East 480 552 23,000  Level Cleveland Center
Sun 04:42:10 PM 42.0597 -83.7633 94° East 480 552 23,000  Level Cleveland Center
Sun 04:43:10 PM 42.0514 -83.6033 94° East 480 552 23,000  Level Cleveland Center
Sun 04:44:10 PM 42.0419 -83.4072 94° East 480 552 23,000 -350 Level Cleveland Center
Sun 04:45:10 PM 42.0253 -83.2358 97° East 475 547 22,300 -1,150 Descending Cleveland Center
Sun 04:46:10 PM 42.0083 -83.0536 97° East 459 528 20,700 -1,600 Descending Cleveland Center
Sun 04:47:10 PM 41.9908 -82.8992 99° East 436 502 19,100 -1,700 Descending Cleveland Center
Sun 04:48:10 PM 41.9750 -82.7422 98° East 422 486 17,300 -1,850 Descending Cleveland Center
Sun 04:49:10 PM 41.9611 -82.5908 97° East 417 480 15,400 -1,950 Descending Cleveland Center
Sun 04:50:10 PM 41.9261 -82.4475 108° East 406 467 13,400 -1,982 Descending Cleveland Center
Sun 04:50:59 PM 41.8883 -82.3347 114° Southeast 400 460 11,800 -1,978 Descending Cleveland Center
Sun 04:51:41 PM 41.8603 -82.2419 112° Southeast 396 456 10,400 -1,521 Descending Cleveland Center
Sun 04:52:10 PM 41.8406 -82.1775 112° Southeast 394 453 10,000 -393 Descending Cleveland Center
Sun 04:52:42 PM 41.8036 -82.1375 141° Southeast 362 417 10,000  Level Cleveland Center
Sun 04:53:10 PM 41.7625 -82.0947 142° Southeast 356 410 10,000  Level Cleveland Center
Sun 04:53:37 PM 41.7314 -82.0633 143° Southeast 331 381 10,000 -700 Level Cleveland Center
Sun 04:54:10 PM 41.6967 -82.0181 136° Southeast 332 382 9,300 -1,308 Descending Cleveland Center
Sun 04:54:55 PM 41.6642 -81.9478 122° Southeast 308 354 8,300 -1,200 Descending Cleveland Center
Sun 04:55:10 PM 41.6581 -81.9311 116° Southeast 313 360 8,100 -1,964 Descending Cleveland Center
Sun 04:55:50 PM 41.6317 -81.8639 118° Southeast 270 311 6,500 -2,000 Descending Cleveland Center
Sun 04:56:10 PM 41.6217 -81.8414 121° Southeast 286 329 6,100 -1,770 Descending Cleveland Center
Sun 04:56:51 PM 41.5953 -81.7742 118° Southeast 266 306 4,700 -1,800 Descending Cleveland Center
Sun 04:57:10 PM 41.5872 -81.7547 119° Southeast 267 307 4,300 -900 Descending Cleveland Center
Sun 04:57:51 PM 41.5522 -81.7069 134° Southeast 213 245 3,800 -600 Descending Cleveland Center
Sun 04:58:10 PM 41.5417 -81.7011 158° South 233 268 3,700 -689 Descending Cleveland Center
Sun 04:58:52 PM 41.5000 -81.7086 188° South 187 215 3,100 -857 Descending Cleveland Center

Login

Don't have an account? Register now (free) for customized features, flight alerts, and more!